sensor_id;sensor_type;location;lat;lon;timestamp;temperature;humidity
51637;DHT22;37713;53.254;6.460;2023-01-15T00:02:09;5.70;99.90
51637;DHT22;37713;53.254;6.460;2023-01-15T00:04:37;5.60;99.90
51637;DHT22;37713;53.254;6.460;2023-01-15T00:07:03;5.60;99.90
51637;DHT22;37713;53.254;6.460;2023-01-15T00:09:29;5.60;99.90
51637;DHT22;37713;53.254;6.460;2023-01-15T00:11:54;5.60;99.90
51637;DHT22;37713;53.254;6.460;2023-01-15T00:14:20;5.60;99.90
51637;DHT22;37713;53.254;6.460;2023-01-15T00:16:50;5.70;99.90
51637;DHT22;37713;53.254;6.460;2023-01-15T00:19:16;5.60;99.90
51637;DHT22;37713;53.254;6.460;2023-01-15T00:21:41;5.60;99.90
51637;DHT22;37713;53.254;6.460;2023-01-15T00:24:08;5.60;99.90
51637;DHT22;37713;53.254;6.460;2023-01-15T00:26:52;5.60;99.90
51637;DHT22;37713;53.254;6.460;2023-01-15T00:29:36;5.60;99.90
51637;DHT22;37713;53.254;6.460;2023-01-15T00:32:05;5.60;99.90
51637;DHT22;37713;53.254;6.460;2023-01-15T00:34:31;5.60;99.90
51637;DHT22;37713;53.254;6.460;2023-01-15T00:36:58;5.60;99.90
51637;DHT22;37713;53.254;6.460;2023-01-15T00:39:23;5.60;99.90
51637;DHT22;37713;53.254;6.460;2023-01-15T00:41:51;5.60;99.90
51637;DHT22;37713;53.254;6.460;2023-01-15T00:44:17;5.60;99.90
51637;DHT22;37713;53.254;6.460;2023-01-15T00:46:43;5.60;99.90
51637;DHT22;37713;53.254;6.460;2023-01-15T00:49:09;5.60;99.90
51637;DHT22;37713;53.254;6.460;2023-01-15T00:51:35;5.60;99.90
51637;DHT22;37713;53.254;6.460;2023-01-15T00:54:01;5.60;99.90
51637;DHT22;37713;53.254;6.460;2023-01-15T00:56:27;5.70;99.90
51637;DHT22;37713;53.254;6.460;2023-01-15T00:58:53;5.70;99.90
51637;DHT22;37713;53.254;6.460;2023-01-15T01:01:19;5.60;99.90
51637;DHT22;37713;53.254;6.460;2023-01-15T01:03:45;5.60;99.90
51637;DHT22;37713;53.254;6.460;2023-01-15T01:06:18;5.60;99.90
51637;DHT22;37713;53.254;6.460;2023-01-15T01:08:44;5.60;99.90
51637;DHT22;37713;53.254;6.460;2023-01-15T01:11:13;5.60;99.90
51637;DHT22;37713;53.254;6.460;2023-01-15T01:13:39;5.60;99.90
51637;DHT22;37713;53.254;6.460;2023-01-15T01:16:30;5.60;99.90
51637;DHT22;37713;53.254;6.460;2023-01-15T01:18:58;5.50;99.90
51637;DHT22;37713;53.254;6.460;2023-01-15T01:21:25;5.50;99.90
51637;DHT22;37713;53.254;6.460;2023-01-15T01:23:51;5.60;99.90
51637;DHT22;37713;53.254;6.460;2023-01-15T01:26:17;5.50;99.90
51637;DHT22;37713;53.254;6.460;2023-01-15T01:28:48;5.40;99.90
51637;DHT22;37713;53.254;6.460;2023-01-15T01:31:14;5.40;99.90
51637;DHT22;37713;53.254;6.460;2023-01-15T01:33:39;5.40;99.90
51637;DHT22;37713;53.254;6.460;2023-01-15T01:36:05;5.40;99.90
51637;DHT22;37713;53.254;6.460;2023-01-15T01:38:31;5.40;99.90
51637;DHT22;37713;53.254;6.460;2023-01-15T01:40:57;5.40;99.90
51637;DHT22;37713;53.254;6.460;2023-01-15T01:43:25;5.40;99.90
51637;DHT22;37713;53.254;6.460;2023-01-15T01:45:52;5.40;99.90
51637;DHT22;37713;53.254;6.460;2023-01-15T01:48:21;5.40;99.90
51637;DHT22;37713;53.254;6.460;2023-01-15T01:50:48;5.40;99.90
51637;DHT22;37713;53.254;6.460;2023-01-15T01:53:19;5.40;99.90
51637;DHT22;37713;53.254;6.460;2023-01-15T01:55:47;5.50;99.90
51637;DHT22;37713;53.254;6.460;2023-01-15T01:58:14;5.50;99.90
51637;DHT22;37713;53.254;6.460;2023-01-15T02:00:44;5.50;99.90
51637;DHT22;37713;53.254;6.460;2023-01-15T02:03:10;5.50;99.90
51637;DHT22;37713;53.254;6.460;2023-01-15T02:05:39;5.50;99.90
51637;DHT22;37713;53.254;6.460;2023-01-15T02:08:07;5.50;99.90
51637;DHT22;37713;53.254;6.460;2023-01-15T02:10:32;5.40;99.90
51637;DHT22;37713;53.254;6.460;2023-01-15T02:13:22;5.50;99.90
51637;DHT22;37713;53.254;6.460;2023-01-15T02:24:06;5.40;99.90
51637;DHT22;37713;53.254;6.460;2023-01-15T02:27:04;5.40;99.90
51637;DHT22;37713;53.254;6.460;2023-01-15T02:29:53;5.30;99.90
51637;DHT22;37713;53.254;6.460;2023-01-15T02:32:40;5.30;99.90
51637;DHT22;37713;53.254;6.460;2023-01-15T02:37:48;5.30;99.90
51637;DHT22;37713;53.254;6.460;2023-01-15T02:40:21;5.30;99.90
51637;DHT22;37713;53.254;6.460;2023-01-15T02:42:48;5.30;99.90
51637;DHT22;37713;53.254;6.460;2023-01-15T02:45:18;5.30;99.90
51637;DHT22;37713;53.254;6.460;2023-01-15T02:47:50;5.30;99.90
51637;DHT22;37713;53.254;6.460;2023-01-15T02:50:19;5.30;99.90
51637;DHT22;37713;53.254;6.460;2023-01-15T02:52:53;5.30;99.90
51637;DHT22;37713;53.254;6.460;2023-01-15T02:55:24;5.30;99.90
51637;DHT22;37713;53.254;6.460;2023-01-15T02:57:53;5.30;99.90
51637;DHT22;37713;53.254;6.460;2023-01-15T03:00:21;5.30;99.90
51637;DHT22;37713;53.254;6.460;2023-01-15T03:02:56;5.30;99.90
51637;DHT22;37713;53.254;6.460;2023-01-15T03:05:27;5.20;99.90
51637;DHT22;37713;53.254;6.460;2023-01-15T03:07:59;5.20;99.90
51637;DHT22;37713;53.254;6.460;2023-01-15T03:13:00;5.20;99.90
51637;DHT22;37713;53.254;6.460;2023-01-15T03:15:41;5.30;99.90
51637;DHT22;37713;53.254;6.460;2023-01-15T03:18:32;5.30;99.90
51637;DHT22;37713;53.254;6.460;2023-01-15T03:21:04;5.30;99.90
51637;DHT22;37713;53.254;6.460;2023-01-15T03:23:35;5.30;99.90
51637;DHT22;37713;53.254;6.460;2023-01-15T03:26:02;5.20;99.90
51637;DHT22;37713;53.254;6.460;2023-01-15T03:28:31;5.20;99.90
51637;DHT22;37713;53.254;6.460;2023-01-15T03:30:58;5.20;99.90
51637;DHT22;37713;53.254;6.460;2023-01-15T03:33:24;5.20;99.90
51637;DHT22;37713;53.254;6.460;2023-01-15T03:35:54;5.20;99.90
51637;DHT22;37713;53.254;6.460;2023-01-15T03:38:32;5.20;99.90
51637;DHT22;37713;53.254;6.460;2023-01-15T03:46:47;5.20;99.90
51637;DHT22;37713;53.254;6.460;2023-01-15T03:49:35;5.20;99.90
51637;DHT22;37713;53.254;6.460;2023-01-15T03:52:24;5.20;99.90
51637;DHT22;37713;53.254;6.460;2023-01-15T03:55:03;5.20;99.90
51637;DHT22;37713;53.254;6.460;2023-01-15T03:57:48;5.20;99.90
51637;DHT22;37713;53.254;6.460;2023-01-15T04:00:26;5.10;99.90
51637;DHT22;37713;53.254;6.460;2023-01-15T04:02:54;5.10;99.90
51637;DHT22;37713;53.254;6.460;2023-01-15T04:05:21;5.10;99.90
51637;DHT22;37713;53.254;6.460;2023-01-15T04:07:49;5.00;99.90
51637;DHT22;37713;53.254;6.460;2023-01-15T04:10:16;5.00;99.90
51637;DHT22;37713;53.254;6.460;2023-01-15T04:12:42;5.00;99.90
51637;DHT22;37713;53.254;6.460;2023-01-15T04:15:10;4.90;99.90
51637;DHT22;37713;53.254;6.460;2023-01-15T04:17:36;5.00;99.90
51637;DHT22;37713;53.254;6.460;2023-01-15T04:20:02;4.90;99.90
51637;DHT22;37713;53.254;6.460;2023-01-15T04:22:28;5.00;99.90
51637;DHT22;37713;53.254;6.460;2023-01-15T04:24:55;5.00;99.90
51637;DHT22;37713;53.254;6.460;2023-01-15T04:27:21;5.00;99.90
51637;DHT22;37713;53.254;6.460;2023-01-15T04:29:47;4.90;99.90
51637;DHT22;37713;53.254;6.460;2023-01-15T04:32:13;4.90;99.90
51637;DHT22;37713;53.254;6.460;2023-01-15T04:34:39;4.90;99.90
51637;DHT22;37713;53.254;6.460;2023-01-15T04:37:05;4.90;99.90
51637;DHT22;37713;53.254;6.460;2023-01-15T04:39:31;4.90;99.90
51637;DHT22;37713;53.254;6.460;2023-01-15T04:41:57;4.80;99.90
51637;DHT22;37713;53.254;6.460;2023-01-15T04:44:41;4.80;99.90
51637;DHT22;37713;53.254;6.460;2023-01-15T04:47:07;4.80;99.90
51637;DHT22;37713;53.254;6.460;2023-01-15T04:49:33;4.60;99.90
51637;DHT22;37713;53.254;6.460;2023-01-15T04:51:59;4.70;99.90
51637;DHT22;37713;53.254;6.460;2023-01-15T04:54:25;4.70;99.90
51637;DHT22;37713;53.254;6.460;2023-01-15T04:56:52;4.70;99.90
51637;DHT22;37713;53.254;6.460;2023-01-15T04:59:20;4.80;99.90
51637;DHT22;37713;53.254;6.460;2023-01-15T05:01:47;4.70;99.90
51637;DHT22;37713;53.254;6.460;2023-01-15T05:04:13;4.60;99.90
51637;DHT22;37713;53.254;6.460;2023-01-15T05:06:38;4.70;99.90
51637;DHT22;37713;53.254;6.460;2023-01-15T05:09:04;4.60;99.90
51637;DHT22;37713;53.254;6.460;2023-01-15T05:11:33;4.60;99.90
51637;DHT22;37713;53.254;6.460;2023-01-15T05:13:59;4.60;99.90
51637;DHT22;37713;53.254;6.460;2023-01-15T05:16:26;4.60;99.90
51637;DHT22;37713;53.254;6.460;2023-01-15T05:18:55;4.60;99.90
51637;DHT22;37713;53.254;6.460;2023-01-15T05:21:22;4.50;99.90
51637;DHT22;37713;53.254;6.460;2023-01-15T05:23:50;4.40;99.90
51637;DHT22;37713;53.254;6.460;2023-01-15T05:26:17;4.40;99.90
51637;DHT22;37713;53.254;6.460;2023-01-15T05:28:42;4.40;99.90
51637;DHT22;37713;53.254;6.460;2023-01-15T05:31:13;4.40;99.90
51637;DHT22;37713;53.254;6.460;2023-01-15T05:33:39;4.40;99.90
51637;DHT22;37713;53.254;6.460;2023-01-15T05:36:16;4.40;99.90
51637;DHT22;37713;53.254;6.460;2023-01-15T05:38:42;4.30;99.90
51637;DHT22;37713;53.254;6.460;2023-01-15T05:41:11;4.30;99.90
51637;DHT22;37713;53.254;6.460;2023-01-15T05:43:58;4.30;99.90
51637;DHT22;37713;53.254;6.460;2023-01-15T05:46:24;4.20;99.90
51637;DHT22;37713;53.254;6.460;2023-01-15T05:48:50;4.20;99.90
51637;DHT22;37713;53.254;6.460;2023-01-15T05:51:15;4.20;99.90
51637;DHT22;37713;53.254;6.460;2023-01-15T05:53:41;4.20;99.90
51637;DHT22;37713;53.254;6.460;2023-01-15T05:56:07;4.20;99.90
51637;DHT22;37713;53.254;6.460;2023-01-15T05:58:33;4.10;99.90
51637;DHT22;37713;53.254;6.460;2023-01-15T06:00:59;4.10;99.90
51637;DHT22;37713;53.254;6.460;2023-01-15T06:03:25;4.10;99.90
51637;DHT22;37713;53.254;6.460;2023-01-15T06:05:52;4.10;99.90
51637;DHT22;37713;53.254;6.460;2023-01-15T06:08:18;4.10;99.90
51637;DHT22;37713;53.254;6.460;2023-01-15T06:10:44;4.10;99.90
51637;DHT22;37713;53.254;6.460;2023-01-15T06:13:10;4.00;99.90
51637;DHT22;37713;53.254;6.460;2023-01-15T06:15:36;4.00;99.90
51637;DHT22;37713;53.254;6.460;2023-01-15T06:18:01;4.00;99.90
51637;DHT22;37713;53.254;6.460;2023-01-15T06:20:27;4.00;99.90
51637;DHT22;37713;53.254;6.460;2023-01-15T06:22:53;4.00;99.90
51637;DHT22;37713;53.254;6.460;2023-01-15T06:25:19;4.00;99.90
51637;DHT22;37713;53.254;6.460;2023-01-15T06:27:44;4.10;99.90
51637;DHT22;37713;53.254;6.460;2023-01-15T06:30:13;4.00;99.90
51637;DHT22;37713;53.254;6.460;2023-01-15T06:32:39;4.10;99.90
51637;DHT22;37713;53.254;6.460;2023-01-15T06:35:05;4.00;99.90
51637;DHT22;37713;53.254;6.460;2023-01-15T06:37:31;4.00;99.90
51637;DHT22;37713;53.254;6.460;2023-01-15T06:39:56;4.10;99.90
51637;DHT22;37713;53.254;6.460;2023-01-15T06:42:23;4.10;99.90
51637;DHT22;37713;53.254;6.460;2023-01-15T06:45:11;4.10;99.90
51637;DHT22;37713;53.254;6.460;2023-01-15T06:47:56;4.10;99.90
51637;DHT22;37713;53.254;6.460;2023-01-15T06:50:23;4.00;99.90
51637;DHT22;37713;53.254;6.460;2023-01-15T06:52:50;4.00;99.90
51637;DHT22;37713;53.254;6.460;2023-01-15T06:55:16;4.00;99.90
51637;DHT22;37713;53.254;6.460;2023-01-15T06:57:43;4.00;99.90
51637;DHT22;37713;53.254;6.460;2023-01-15T07:00:10;4.00;99.90
51637;DHT22;37713;53.254;6.460;2023-01-15T07:02:36;4.00;99.90
51637;DHT22;37713;53.254;6.460;2023-01-15T07:05:03;4.00;99.90
51637;DHT22;37713;53.254;6.460;2023-01-15T07:07:28;4.00;99.90
51637;DHT22;37713;53.254;6.460;2023-01-15T07:09:54;4.00;99.90
51637;DHT22;37713;53.254;6.460;2023-01-15T07:12:21;4.00;99.90
51637;DHT22;37713;53.254;6.460;2023-01-15T07:14:47;4.00;99.90
51637;DHT22;37713;53.254;6.460;2023-01-15T07:17:13;4.00;99.90
51637;DHT22;37713;53.254;6.460;2023-01-15T07:19:39;4.00;99.90
51637;DHT22;37713;53.254;6.460;2023-01-15T07:22:06;3.90;99.90
51637;DHT22;37713;53.254;6.460;2023-01-15T07:24:32;4.00;99.90
51637;DHT22;37713;53.254;6.460;2023-01-15T07:26:58;4.10;99.90
51637;DHT22;37713;53.254;6.460;2023-01-15T07:29:24;4.20;99.90
51637;DHT22;37713;53.254;6.460;2023-01-15T07:31:50;4.20;99.90
51637;DHT22;37713;53.254;6.460;2023-01-15T07:34:16;4.20;99.90
51637;DHT22;37713;53.254;6.460;2023-01-15T07:36:42;4.20;99.90
51637;DHT22;37713;53.254;6.460;2023-01-15T07:39:09;4.20;99.90
51637;DHT22;37713;53.254;6.460;2023-01-15T07:41:36;4.30;99.90
51637;DHT22;37713;53.254;6.460;2023-01-15T07:44:21;4.20;99.90
51637;DHT22;37713;53.254;6.460;2023-01-15T07:47:19;4.20;99.90
51637;DHT22;37713;53.254;6.460;2023-01-15T07:50:06;4.10;99.90
51637;DHT22;37713;53.254;6.460;2023-01-15T07:52:32;4.10;99.90
51637;DHT22;37713;53.254;6.460;2023-01-15T07:54:58;4.10;99.90
51637;DHT22;37713;53.254;6.460;2023-01-15T07:57:25;4.10;99.90
51637;DHT22;37713;53.254;6.460;2023-01-15T07:59:51;4.00;99.90
51637;DHT22;37713;53.254;6.460;2023-01-15T08:02:17;4.10;99.90
51637;DHT22;37713;53.254;6.460;2023-01-15T08:04:43;4.10;99.90
51637;DHT22;37713;53.254;6.460;2023-01-15T08:07:09;4.10;99.90
51637;DHT22;37713;53.254;6.460;2023-01-15T08:09:35;4.10;99.90
51637;DHT22;37713;53.254;6.460;2023-01-15T08:12:02;4.10;99.90
51637;DHT22;37713;53.254;6.460;2023-01-15T08:14:46;4.10;99.90
51637;DHT22;37713;53.254;6.460;2023-01-15T08:17:38;4.20;99.90
51637;DHT22;37713;53.254;6.460;2023-01-15T08:20:07;4.30;99.90
51637;DHT22;37713;53.254;6.460;2023-01-15T08:22:33;4.30;99.90
51637;DHT22;37713;53.254;6.460;2023-01-15T08:24:59;4.30;99.90
51637;DHT22;37713;53.254;6.460;2023-01-15T08:27:26;4.30;99.90
51637;DHT22;37713;53.254;6.460;2023-01-15T08:29:52;4.30;99.90
51637;DHT22;37713;53.254;6.460;2023-01-15T08:32:18;4.30;99.90
51637;DHT22;37713;53.254;6.460;2023-01-15T08:34:44;4.30;99.90
51637;DHT22;37713;53.254;6.460;2023-01-15T08:37:09;4.30;99.90
51637;DHT22;37713;53.254;6.460;2023-01-15T08:39:35;4.40;99.90
51637;DHT22;37713;53.254;6.460;2023-01-15T08:42:01;4.40;99.90
51637;DHT22;37713;53.254;6.460;2023-01-15T08:44:27;4.60;99.90
51637;DHT22;37713;53.254;6.460;2023-01-15T08:46:52;4.60;99.90
51637;DHT22;37713;53.254;6.460;2023-01-15T08:49:19;4.70;99.90
51637;DHT22;37713;53.254;6.460;2023-01-15T08:51:46;4.70;99.90
51637;DHT22;37713;53.254;6.460;2023-01-15T08:54:14;4.70;99.90
51637;DHT22;37713;53.254;6.460;2023-01-15T08:56:40;4.70;99.90
51637;DHT22;37713;53.254;6.460;2023-01-15T08:59:06;4.70;99.90
51637;DHT22;37713;53.254;6.460;2023-01-15T09:01:33;4.60;99.90
51637;DHT22;37713;53.254;6.460;2023-01-15T09:03:59;4.60;99.90
51637;DHT22;37713;53.254;6.460;2023-01-15T09:06:25;4.50;99.90
51637;DHT22;37713;53.254;6.460;2023-01-15T09:08:51;4.40;99.90
51637;DHT22;37713;53.254;6.460;2023-01-15T09:11:17;4.30;99.90
51637;DHT22;37713;53.254;6.460;2023-01-15T09:13:43;4.20;99.90
51637;DHT22;37713;53.254;6.460;2023-01-15T09:16:08;4.20;99.90
51637;DHT22;37713;53.254;6.460;2023-01-15T09:18:37;4.20;99.90
51637;DHT22;37713;53.254;6.460;2023-01-15T09:21:05;4.20;99.90
51637;DHT22;37713;53.254;6.460;2023-01-15T09:23:31;4.20;99.90
51637;DHT22;37713;53.254;6.460;2023-01-15T09:25:59;4.20;99.90
51637;DHT22;37713;53.254;6.460;2023-01-15T09:28:27;4.30;99.90
51637;DHT22;37713;53.254;6.460;2023-01-15T09:30:53;4.40;99.90
51637;DHT22;37713;53.254;6.460;2023-01-15T09:33:19;4.40;99.90
51637;DHT22;37713;53.254;6.460;2023-01-15T09:35:45;4.50;99.90
51637;DHT22;37713;53.254;6.460;2023-01-15T09:38:12;4.50;99.90
51637;DHT22;37713;53.254;6.460;2023-01-15T09:40:54;4.60;99.90
51637;DHT22;37713;53.254;6.460;2023-01-15T09:46:19;4.50;99.90
51637;DHT22;37713;53.254;6.460;2023-01-15T09:49:04;4.50;99.90
51637;DHT22;37713;53.254;6.460;2023-01-15T09:57:26;4.70;99.90
51637;DHT22;37713;53.254;6.460;2023-01-15T09:59:54;4.80;99.90
51637;DHT22;37713;53.254;6.460;2023-01-15T10:02:45;4.90;99.90
51637;DHT22;37713;53.254;6.460;2023-01-15T10:05:15;5.10;99.90
51637;DHT22;37713;53.254;6.460;2023-01-15T10:07:52;5.10;99.90
51637;DHT22;37713;53.254;6.460;2023-01-15T10:10:24;5.20;99.90
51637;DHT22;37713;53.254;6.460;2023-01-15T10:12:57;5.40;99.90
51637;DHT22;37713;53.254;6.460;2023-01-15T10:15:46;5.50;99.90
51637;DHT22;37713;53.254;6.460;2023-01-15T10:18:20;5.40;99.90
51637;DHT22;37713;53.254;6.460;2023-01-15T10:23:36;5.60;99.90
51637;DHT22;37713;53.254;6.460;2023-01-15T10:29:18;5.60;99.90
51637;DHT22;37713;53.254;6.460;2023-01-15T10:31:52;5.60;99.90
51637;DHT22;37713;53.254;6.460;2023-01-15T10:37:12;5.50;99.90
51637;DHT22;37713;53.254;6.460;2023-01-15T10:39:49;5.50;99.90
51637;DHT22;37713;53.254;6.460;2023-01-15T10:45:41;5.60;99.90
51637;DHT22;37713;53.254;6.460;2023-01-15T10:50:41;6.00;99.90
51637;DHT22;37713;53.254;6.460;2023-01-15T10:53:10;6.00;99.90
51637;DHT22;37713;53.254;6.460;2023-01-15T10:56:00;6.00;99.90
51637;DHT22;37713;53.254;6.460;2023-01-15T10:58:37;6.00;99.90
51637;DHT22;37713;53.254;6.460;2023-01-15T11:01:10;6.00;99.90
51637;DHT22;37713;53.254;6.460;2023-01-15T11:03:42;6.10;99.90
51637;DHT22;37713;53.254;6.460;2023-01-15T11:06:13;6.10;99.90
51637;DHT22;37713;53.254;6.460;2023-01-15T11:08:43;6.30;99.90
51637;DHT22;37713;53.254;6.460;2023-01-15T11:11:30;6.40;99.90
51637;DHT22;37713;53.254;6.460;2023-01-15T11:14:15;6.50;99.90
51637;DHT22;37713;53.254;6.460;2023-01-15T11:17:00;6.60;99.90
51637;DHT22;37713;53.254;6.460;2023-01-15T11:19:38;6.60;99.90
51637;DHT22;37713;53.254;6.460;2023-01-15T11:22:11;6.60;99.90
51637;DHT22;37713;53.254;6.460;2023-01-15T11:24:45;6.50;99.90
51637;DHT22;37713;53.254;6.460;2023-01-15T11:27:17;6.50;99.90
51637;DHT22;37713;53.254;6.460;2023-01-15T11:29:44;6.50;99.90
51637;DHT22;37713;53.254;6.460;2023-01-15T11:32:33;6.50;99.90
51637;DHT22;37713;53.254;6.460;2023-01-15T11:37:32;6.50;99.90
51637;DHT22;37713;53.254;6.460;2023-01-15T11:40:00;6.40;99.90
51637;DHT22;37713;53.254;6.460;2023-01-15T11:42:35;6.40;99.90
51637;DHT22;37713;53.254;6.460;2023-01-15T11:45:21;6.40;99.90
51637;DHT22;37713;53.254;6.460;2023-01-15T11:48:18;6.40;99.90
51637;DHT22;37713;53.254;6.460;2023-01-15T11:51:14;6.40;99.90
51637;DHT22;37713;53.254;6.460;2023-01-15T11:53:43;6.30;99.90
51637;DHT22;37713;53.254;6.460;2023-01-15T11:56:16;6.10;99.90
51637;DHT22;37713;53.254;6.460;2023-01-15T11:58:49;6.00;99.90
51637;DHT22;37713;53.254;6.460;2023-01-15T12:01:34;5.80;99.90
51637;DHT22;37713;53.254;6.460;2023-01-15T12:04:04;5.80;99.90
51637;DHT22;37713;53.254;6.460;2023-01-15T12:06:33;5.70;99.90
51637;DHT22;37713;53.254;6.460;2023-01-15T12:09:13;5.60;99.90
51637;DHT22;37713;53.254;6.460;2023-01-15T12:20:25;5.20;99.90
51637;DHT22;37713;53.254;6.460;2023-01-15T12:36:56;4.70;99.90
51637;DHT22;37713;53.254;6.460;2023-01-15T12:42:15;4.90;99.90
51637;DHT22;37713;53.254;6.460;2023-01-15T12:45:04;5.00;99.90
51637;DHT22;37713;53.254;6.460;2023-01-15T12:47:46;5.00;99.90
51637;DHT22;37713;53.254;6.460;2023-01-15T12:50:41;5.00;99.90
51637;DHT22;37713;53.254;6.460;2023-01-15T12:56:22;5.10;99.90
51637;DHT22;37713;53.254;6.460;2023-01-15T13:07:55;5.10;99.90
51637;DHT22;37713;53.254;6.460;2023-01-15T13:10:25;5.10;99.90
51637;DHT22;37713;53.254;6.460;2023-01-15T13:13:12;5.10;99.90
51637;DHT22;37713;53.254;6.460;2023-01-15T13:15:54;5.10;99.90
51637;DHT22;37713;53.254;6.460;2023-01-15T13:21:15;5.10;99.90
51637;DHT22;37713;53.254;6.460;2023-01-15T13:27:02;5.10;99.90
51637;DHT22;37713;53.254;6.460;2023-01-15T13:29:53;5.10;99.90
51637;DHT22;37713;53.254;6.460;2023-01-15T13:32:27;5.10;99.90
51637;DHT22;37713;53.254;6.460;2023-01-15T13:35:06;5.10;99.90
51637;DHT22;37713;53.254;6.460;2023-01-15T13:37:40;5.10;99.90
51637;DHT22;37713;53.254;6.460;2023-01-15T13:42:49;5.10;99.90
51637;DHT22;37713;53.254;6.460;2023-01-15T13:45:49;5.00;99.90
51637;DHT22;37713;53.254;6.460;2023-01-15T13:48:14;4.90;99.90
51637;DHT22;37713;53.254;6.460;2023-01-15T13:50:52;4.80;99.90
51637;DHT22;37713;53.254;6.460;2023-01-15T13:53:25;4.70;99.90
51637;DHT22;37713;53.254;6.460;2023-01-15T13:55:56;4.70;99.90
51637;DHT22;37713;53.254;6.460;2023-01-15T13:58:27;4.70;99.90
51637;DHT22;37713;53.254;6.460;2023-01-15T14:01:47;4.70;99.90
51637;DHT22;37713;53.254;6.460;2023-01-15T14:04:31;4.70;99.90
51637;DHT22;37713;53.254;6.460;2023-01-15T14:06:48;4.70;99.90
51637;DHT22;37713;53.254;6.460;2023-01-15T14:23:14;4.90;99.90
51637;DHT22;37713;53.254;6.460;2023-01-15T14:31:34;5.20;99.90
51637;DHT22;37713;53.254;6.460;2023-01-15T14:34:24;5.30;99.90
51637;DHT22;37713;53.254;6.460;2023-01-15T14:39:54;5.40;99.90
51637;DHT22;37713;53.254;6.460;2023-01-15T14:42:27;5.50;99.90
51637;DHT22;37713;53.254;6.460;2023-01-15T14:47:50;5.50;99.90
51637;DHT22;37713;53.254;6.460;2023-01-15T14:52:45;5.60;99.90
51637;DHT22;37713;53.254;6.460;2023-01-15T14:55:13;5.60;99.90
51637;DHT22;37713;53.254;6.460;2023-01-15T14:57:43;5.60;99.90
51637;DHT22;37713;53.254;6.460;2023-01-15T15:00:16;5.60;99.90
51637;DHT22;37713;53.254;6.460;2023-01-15T15:02:46;5.60;99.90
51637;DHT22;37713;53.254;6.460;2023-01-15T15:05:16;5.60;99.90
51637;DHT22;37713;53.254;6.460;2023-01-15T15:07:44;5.50;99.90
51637;DHT22;37713;53.254;6.460;2023-01-15T15:12:57;5.50;99.90
51637;DHT22;37713;53.254;6.460;2023-01-15T15:18:31;5.50;99.90
51637;DHT22;37713;53.254;6.460;2023-01-15T15:21:19;5.50;99.90
51637;DHT22;37713;53.254;6.460;2023-01-15T15:26:32;5.50;99.90
51637;DHT22;37713;53.254;6.460;2023-01-15T15:29:18;5.50;99.90
51637;DHT22;37713;53.254;6.460;2023-01-15T15:31:47;5.40;99.90
51637;DHT22;37713;53.254;6.460;2023-01-15T15:34:36;5.40;99.90
51637;DHT22;37713;53.254;6.460;2023-01-15T15:37:13;5.40;99.90
51637;DHT22;37713;53.254;6.460;2023-01-15T15:39:44;5.40;99.90
51637;DHT22;37713;53.254;6.460;2023-01-15T15:42:38;5.40;99.90
51637;DHT22;37713;53.254;6.460;2023-01-15T15:45:27;5.40;99.90
51637;DHT22;37713;53.254;6.460;2023-01-15T15:48:29;5.30;99.90
51637;DHT22;37713;53.254;6.460;2023-01-15T15:54:17;5.30;99.90
51637;DHT22;37713;53.254;6.460;2023-01-15T15:57:16;5.30;99.90
51637;DHT22;37713;53.254;6.460;2023-01-15T15:59:50;5.20;99.90
51637;DHT22;37713;53.254;6.460;2023-01-15T16:02:31;5.20;99.90
51637;DHT22;37713;53.254;6.460;2023-01-15T16:07:48;5.00;99.90
51637;DHT22;37713;53.254;6.460;2023-01-15T16:12:52;5.00;99.90
51637;DHT22;37713;53.254;6.460;2023-01-15T16:15:24;4.90;99.90
51637;DHT22;37713;53.254;6.460;2023-01-15T16:17:54;4.90;99.90
51637;DHT22;37713;53.254;6.460;2023-01-15T16:20:20;4.80;99.90
51637;DHT22;37713;53.254;6.460;2023-01-15T16:23:22;4.80;99.90
51637;DHT22;37713;53.254;6.460;2023-01-15T16:26:16;4.80;99.90
51637;DHT22;37713;53.254;6.460;2023-01-15T16:28:54;4.70;99.90
51637;DHT22;37713;53.254;6.460;2023-01-15T16:31:21;4.60;99.90
51637;DHT22;37713;53.254;6.460;2023-01-15T16:33:56;4.60;99.90
51637;DHT22;37713;53.254;6.460;2023-01-15T16:36:23;4.60;99.90
51637;DHT22;37713;53.254;6.460;2023-01-15T16:38:50;4.60;99.90
51637;DHT22;37713;53.254;6.460;2023-01-15T16:41:20;4.60;99.90
51637;DHT22;37713;53.254;6.460;2023-01-15T16:43:54;4.60;99.90
51637;DHT22;37713;53.254;6.460;2023-01-15T16:46:22;4.60;99.90
51637;DHT22;37713;53.254;6.460;2023-01-15T16:48:48;4.60;99.90
51637;DHT22;37713;53.254;6.460;2023-01-15T16:51:35;4.50;99.90
51637;DHT22;37713;53.254;6.460;2023-01-15T16:54:04;4.50;99.90
51637;DHT22;37713;53.254;6.460;2023-01-15T16:59:03;4.40;99.90
51637;DHT22;37713;53.254;6.460;2023-01-15T17:01:45;4.40;99.90
51637;DHT22;37713;53.254;6.460;2023-01-15T17:04:38;4.50;99.90
51637;DHT22;37713;53.254;6.460;2023-01-15T17:07:19;4.40;99.90
51637;DHT22;37713;53.254;6.460;2023-01-15T17:09:53;4.50;99.90
51637;DHT22;37713;53.254;6.460;2023-01-15T17:12:37;4.50;99.90
51637;DHT22;37713;53.254;6.460;2023-01-15T17:17:47;4.50;99.90
51637;DHT22;37713;53.254;6.460;2023-01-15T17:20:15;4.50;99.90
51637;DHT22;37713;53.254;6.460;2023-01-15T17:22:43;4.50;99.90
51637;DHT22;37713;53.254;6.460;2023-01-15T17:25:38;4.50;99.90
51637;DHT22;37713;53.254;6.460;2023-01-15T17:28:04;4.40;99.90
51637;DHT22;37713;53.254;6.460;2023-01-15T17:30:31;4.40;99.90
51637;DHT22;37713;53.254;6.460;2023-01-15T17:33:01;4.30;99.90
51637;DHT22;37713;53.254;6.460;2023-01-15T17:37:55;4.30;99.90
51637;DHT22;37713;53.254;6.460;2023-01-15T17:40:21;4.20;99.90
51637;DHT22;37713;53.254;6.460;2023-01-15T17:42:47;4.30;99.90
51637;DHT22;37713;53.254;6.460;2023-01-15T17:45:21;4.30;99.90
51637;DHT22;37713;53.254;6.460;2023-01-15T17:47:47;4.30;99.90
51637;DHT22;37713;53.254;6.460;2023-01-15T17:50:13;4.30;99.90
51637;DHT22;37713;53.254;6.460;2023-01-15T17:52:40;4.30;99.90
51637;DHT22;37713;53.254;6.460;2023-01-15T17:55:12;4.30;99.90
51637;DHT22;37713;53.254;6.460;2023-01-15T17:57:57;4.20;99.90
51637;DHT22;37713;53.254;6.460;2023-01-15T18:00:41;4.20;99.90
51637;DHT22;37713;53.254;6.460;2023-01-15T18:03:26;4.10;99.90
51637;DHT22;37713;53.254;6.460;2023-01-15T18:06:13;4.10;99.90
51637;DHT22;37713;53.254;6.460;2023-01-15T18:08:41;4.00;99.90
51637;DHT22;37713;53.254;6.460;2023-01-15T18:11:09;4.00;99.90
51637;DHT22;37713;53.254;6.460;2023-01-15T18:13:35;3.90;99.90
51637;DHT22;37713;53.254;6.460;2023-01-15T18:16:00;3.90;99.90
51637;DHT22;37713;53.254;6.460;2023-01-15T18:18:26;3.70;99.90
51637;DHT22;37713;53.254;6.460;2023-01-15T18:20:52;3.70;99.90
51637;DHT22;37713;53.254;6.460;2023-01-15T18:23:18;3.60;99.90
51637;DHT22;37713;53.254;6.460;2023-01-15T18:25:44;3.60;99.90
51637;DHT22;37713;53.254;6.460;2023-01-15T18:28:13;3.50;99.90
51637;DHT22;37713;53.254;6.460;2023-01-15T18:30:39;3.50;99.90
51637;DHT22;37713;53.254;6.460;2023-01-15T18:33:05;3.40;99.90
51637;DHT22;37713;53.254;6.460;2023-01-15T18:35:31;3.50;99.90
51637;DHT22;37713;53.254;6.460;2023-01-15T18:37:57;3.50;99.90